Crocheron, Maryland
Current Conditions -  °F | °C
As of 5:07 PM on Monday 22 Dec 2014 (Local Time) from KNHK Reporting Station
Light Rain Light Rain  
Wind Chill: 33°   Ceiling: 900
Heat Index: 38°   Visibility: 3mi
Dew Point: 35°   Wind: 7mph
Humidity: 89%   Direction: 20°NNE
Pressure: 30.13"   Gusts: NA
Location:  38.24°N, 76.05°W
Report Text: KNHK 222207Z 02006KT 3SM -RA BR FEW006 BKN009 OVC016 03/02 A3013 RMK AO2 VIS 2 RY24 P0000 T00330017
Loading
Personal Weather Stations






























Interactive Weather Map New forecast layout! Learn more

10-Day Weather Forecast

Advertisements
Track Severe Weather on mobile